Time;durP1;ratioP1;P1;durP2;ratioP2;P2;SDS_P1;SDS_P2;PMS_P1;PMS_P2;Temp;Humidity;BMP_temperature;BMP_pressure;BME280_temperature;BME280_humidity;BME280_pressure;Samples;Min_cycle;Max_cycle;Signal;HPM_P1;HPM_P2
2022/11/23 00:01:22;;;;;;;23.70;14.27;;;7.70;99.90;;;;;;5069867;28;20128;-64
2022/11/23 00:03:50;;;;;;;25.02;13.68;;;7.70;99.90;;;;;;5069254;28;20036;-64
2022/11/23 00:06:16;;;;;;;24.90;13.98;;;7.70;99.90;;;;;;5069761;28;20047;-64
2022/11/23 00:08:41;;;;;;;20.65;14.02;;;7.70;99.90;;;;;;5069721;28;20029;-64
2022/11/23 00:11:07;;;;;;;25.90;14.55;;;7.70;99.90;;;;;;5070068;28;20037;-64
2022/11/23 00:13:38;;;;;;;26.98;15.43;;;7.70;99.90;;;;;;5068319;28;20037;-64
2022/11/23 00:16:05;;;;;;;23.20;13.75;;;7.80;99.90;;;;;;5069818;28;20044;-64
2022/11/23 00:18:31;;;;;;;25.40;14.75;;;7.70;99.90;;;;;;5067444;28;20040;-64
2022/11/23 00:20:56;;;;;;;23.10;13.00;;;7.70;99.90;;;;;;5067569;28;20031;-64
2022/11/23 00:23:22;;;;;;;25.30;13.48;;;7.80;99.90;;;;;;5063664;28;20033;-64
2022/11/23 00:25:48;;;;;;;28.10;15.05;;;7.80;99.90;;;;;;5052350;28;20406;-64
2022/11/23 00:28:13;;;;;;;20.52;12.80;;;7.70;99.90;;;;;;5069818;28;20060;-64
2022/11/23 00:30:39;;;;;;;22.48;12.48;;;7.80;99.90;;;;;;5069794;28;20417;-63
2022/11/23 00:33:04;;;;;;;25.48;12.32;;;7.80;99.90;;;;;;5071804;28;20482;-64
2022/11/23 00:35:30;;;;;;;19.63;12.02;;;7.80;99.90;;;;;;5070446;28;20409;-64
2022/11/23 00:37:55;;;;;;;19.10;11.45;;;7.80;99.90;;;;;;5069859;28;20060;-64
2022/11/23 00:40:21;;;;;;;21.58;11.65;;;7.80;99.90;;;;;;5067814;28;20040;-64
2022/11/23 00:42:46;;;;;;;21.08;12.02;;;7.80;99.90;;;;;;5070121;28;20047;-63
2022/11/23 00:45:12;;;;;;;20.08;11.52;;;7.80;99.90;;;;;;5068074;28;20055;-64
2022/11/23 00:47:38;;;;;;;18.65;11.60;;;7.90;99.90;;;;;;5071024;28;20119;-64
2022/11/23 00:50:03;;;;;;;20.25;11.25;;;7.80;99.90;;;;;;5063650;28;20129;-64
2022/11/23 00:52:29;;;;;;;18.50;10.52;;;7.80;99.90;;;;;;5067816;28;20409;-64
2022/11/23 00:54:54;;;;;;;16.15;10.63;;;7.80;99.90;;;;;;5067716;28;20089;-64
2022/11/23 00:57:20;;;;;;;19.40;10.80;;;7.90;99.90;;;;;;5068081;28;20370;-64
2022/11/23 00:59:45;;;;;;;18.15;11.50;;;7.90;99.90;;;;;;5066601;28;20818;-63
2022/11/23 01:02:11;;;;;;;20.13;11.52;;;7.90;99.90;;;;;;5074177;28;20036;-63
2022/11/23 01:04:39;;;;;;;19.00;11.40;;;7.90;99.90;;;;;;5062586;28;20090;-63
2022/11/23 01:07:05;;;;;;;19.42;10.38;;;7.90;99.90;;;;;;5064956;28;20043;-63
2022/11/23 01:09:30;;;;;;;18.33;10.65;;;7.90;99.90;;;;;;5073520;28;20033;-63
2022/11/23 01:11:56;;;;;;;15.40;10.10;;;7.90;99.90;;;;;;5074151;28;20041;-64
2022/11/23 01:14:22;;;;;;;15.52;10.63;;;7.90;99.90;;;;;;5081794;28;20097;-63
2022/11/23 01:16:48;;;;;;;15.35;10.43;;;7.90;99.90;;;;;;5085336;28;20035;-63
2022/11/23 01:19:16;;;;;;;15.85;11.10;;;7.90;99.90;;;;;;5050677;28;20394;-64
2022/11/23 01:21:43;;;;;;;17.92;9.98;;;7.90;99.90;;;;;;5070923;28;20041;-64
2022/11/23 01:24:13;;;;;;;16.40;10.00;;;7.90;99.90;;;;;;5073384;28;20036;-63
2022/11/23 01:26:39;;;;;;;14.45;9.95;;;7.90;99.90;;;;;;5073806;28;20052;-63
2022/11/23 01:29:05;;;;;;;14.73;9.48;;;8.00;99.90;;;;;;5071644;28;20028;-63
2022/11/23 01:31:31;;;;;;;15.80;10.15;;;8.00;99.90;;;;;;5074613;28;20046;-63
2022/11/23 01:34:03;;;;;;;14.55;9.65;;;7.90;99.90;;;;;;5071504;28;20214;-63
2022/11/23 01:36:31;;;;;;;17.52;10.13;;;7.90;99.90;;;;;;5075655;28;20548;-63
2022/11/23 01:38:58;;;;;;;15.75;9.57;;;7.90;99.90;;;;;;5072614;28;20051;-63
2022/11/23 01:41:33;;;;;;;16.88;9.88;;;8.00;99.90;;;;;;5073780;28;20044;-63
2022/11/23 01:44:20;;;;;;;17.55;10.02;;;8.00;99.90;;;;;;5072809;28;20044;-63
2022/11/23 01:46:45;;;;;;;13.02;9.38;;;8.00;99.90;;;;;;5074212;28;20056;-63
2022/11/23 01:49:11;;;;;;;20.55;10.07;;;8.00;99.90;;;;;;5069230;28;20040;-63
2022/11/23 01:51:40;;;;;;;16.13;9.35;;;8.00;99.90;;;;;;5072119;28;20098;-63
2022/11/23 01:54:21;;;;;;;15.07;8.95;;;8.00;99.90;;;;;;5073175;28;20540;-63
2022/11/23 01:56:58;;;;;;;16.90;9.10;;;8.00;99.90;;;;;;5069874;28;20106;-64
2022/11/23 01:59:25;;;;;;;15.82;9.27;;;8.00;99.90;;;;;;5071405;28;20040;-63
2022/11/23 02:01:51;;;;;;;14.30;9.23;;;8.10;99.90;;;;;;5072437;28;20094;-63
2022/11/23 02:04:23;;;;;;;14.75;9.07;;;8.10;99.90;;;;;;5068562;28;20075;-63
2022/11/23 02:06:49;;;;;;;15.05;9.30;;;8.00;99.90;;;;;;5071485;28;20662;-63
2022/11/23 02:09:15;;;;;;;12.30;8.75;;;8.10;99.90;;;;;;5054596;28;20064;-64
2022/11/23 02:11:41;;;;;;;14.52;9.02;;;8.10;99.90;;;;;;5048993;28;20055;-64
2022/11/23 02:14:07;;;;;;;13.95;8.93;;;8.10;99.90;;;;;;5050691;28;20040;-64
2022/11/23 02:16:35;;;;;;;16.38;9.00;;;8.10;99.90;;;;;;5051998;28;20496;-64
2022/11/23 02:19:00;;;;;;;16.75;9.65;;;8.10;99.90;;;;;;5057762;28;20490;-63
2022/11/23 02:21:26;;;;;;;18.35;9.75;;;8.10;99.90;;;;;;5070654;28;20051;-64
2022/11/23 02:24:08;;;;;;;16.33;9.20;;;8.10;99.90;;;;;;5073980;28;20052;-64
2022/11/23 02:26:35;;;;;;;19.08;9.70;;;8.10;99.90;;;;;;5071132;28;20036;-65
2022/11/23 02:29:06;;;;;;;14.98;9.98;;;8.10;99.90;;;;;;5072167;28;20028;-64
2022/11/23 02:31:32;;;;;;;16.77;9.85;;;8.10;99.90;;;;;;5072043;28;20056;-64
2022/11/23 02:33:58;;;;;;;14.65;9.20;;;8.10;99.90;;;;;;5069628;28;20036;-64
2022/11/23 02:36:38;;;;;;;16.27;9.10;;;8.10;99.90;;;;;;5060027;28;20397;-64
2022/11/23 02:39:07;;;;;;;16.23;9.65;;;8.10;99.90;;;;;;5066586;28;20082;-64
2022/11/23 02:41:45;;;;;;;17.55;9.43;;;8.10;99.90;;;;;;5069684;28;20413;-64
2022/11/23 02:44:36;;;;;;;16.10;8.80;;;8.10;99.90;;;;;;5067514;28;20502;-64
2022/11/23 02:47:02;;;;;;;;;;;8.10;99.90;;;;;;5055509;28;20058;-64
2022/11/23 02:49:28;;;;;;;16.67;9.50;;;8.10;99.90;;;;;;5069152;28;19924;-64
2022/11/23 02:51:54;;;;;;;15.55;8.95;;;8.10;99.90;;;;;;5072578;28;20601;-64
2022/11/23 02:54:19;;;;;;;16.77;9.25;;;8.10;99.90;;;;;;5069518;28;20107;-64
2022/11/23 02:56:45;;;;;;;15.68;9.18;;;8.10;99.90;;;;;;5070372;28;20041;-64
2022/11/23 02:59:10;;;;;;;16.85;9.20;;;8.10;99.90;;;;;;5068435;28;20522;-64
2022/11/23 03:01:36;;;;;;;14.00;8.82;;;8.10;99.90;;;;;;5065296;28;20037;-63
2022/11/23 03:04:02;;;;;;;18.30;9.93;;;8.10;99.90;;;;;;5067107;28;20058;-63
2022/11/23 03:06:27;;;;;;;18.95;9.55;;;8.20;99.90;;;;;;5069418;28;20045;-63
2022/11/23 03:08:53;;;;;;;19.85;9.88;;;8.10;99.90;;;;;;5070520;28;20382;-63
2022/11/23 03:11:19;;;;;;;18.55;9.63;;;8.20;99.90;;;;;;5070651;28;20082;-63
2022/11/23 03:13:44;;;;;;;18.63;10.30;;;8.20;99.90;;;;;;5069960;28;20044;-63
2022/11/23 03:16:10;;;;;;;19.85;9.90;;;8.20;99.90;;;;;;5069984;28;20124;-63
2022/11/23 03:18:35;;;;;;;16.00;10.02;;;8.20;99.90;;;;;;5070652;28;20040;-63
2022/11/23 03:21:02;;;;;;;20.08;10.95;;;8.20;99.90;;;;;;5069930;28;20449;-63
2022/11/23 03:23:28;;;;;;;19.88;10.27;;;8.10;99.90;;;;;;5069438;28;20046;-64
2022/11/23 03:25:56;;;;;;;17.73;10.25;;;8.10;99.90;;;;;;5070667;28;20111;-63
2022/11/23 03:28:21;;;;;;;21.35;10.93;;;8.20;99.90;;;;;;5070895;28;20032;-63
2022/11/23 03:30:47;;;;;;;20.08;11.63;;;8.20;99.90;;;;;;5068940;28;20406;-64
2022/11/23 03:33:13;;;;;;;20.05;10.73;;;8.20;99.90;;;;;;5070844;28;20482;-63
2022/11/23 03:35:38;;;;;;;20.48;10.23;;;8.20;99.90;;;;;;5070946;28;20036;-63
2022/11/23 03:38:04;;;;;;;20.50;11.38;;;8.20;99.90;;;;;;5070987;28;20079;-64
2022/11/23 03:40:30;;;;;;;24.00;11.57;;;8.20;99.90;;;;;;5066698;28;20047;-63
2022/11/23 03:42:55;;;;;;;21.15;11.38;;;8.20;99.90;;;;;;5069445;28;20036;-64
2022/11/23 03:45:21;;;;;;;22.58;11.60;;;8.20;99.90;;;;;;5072069;28;20074;-64
2022/11/23 03:47:46;;;;;;;22.88;12.30;;;8.20;99.90;;;;;;5067866;28;20040;-64
2022/11/23 03:50:12;;;;;;;24.80;12.48;;;8.20;99.90;;;;;;5066483;28;20403;-64
2022/11/23 03:52:37;;;;;;;25.52;13.20;;;8.20;99.90;;;;;;5067700;28;20072;-63
2022/11/23 03:55:03;;;;;;;20.63;11.73;;;8.20;99.90;;;;;;5070987;28;20043;-64
2022/11/23 03:57:29;;;;;;;22.55;12.15;;;8.20;99.90;;;;;;5066284;28;20067;-63
2022/11/23 03:59:54;;;;;;;22.55;11.75;;;8.20;99.90;;;;;;5070213;28;20121;-64
2022/11/23 04:02:20;;;;;;;27.20;12.98;;;8.20;99.90;;;;;;5067730;28;20071;-64
2022/11/23 04:04:45;;;;;;;23.65;12.27;;;8.20;99.90;;;;;;5070086;28;20041;-63
2022/11/23 04:07:11;;;;;;;25.38;12.70;;;8.20;99.90;;;;;;5066952;28;20040;-64
2022/11/23 04:09:36;;;;;;;26.48;13.20;;;8.30;99.90;;;;;;5069476;28;20048;-64
2022/11/23 04:12:02;;;;;;;27.33;13.75;;;8.20;99.90;;;;;;5068550;28;20032;-64
2022/11/23 04:14:28;;;;;;;24.33;11.23;;;8.20;99.90;;;;;;5069760;28;20066;-64
2022/11/23 04:16:54;;;;;;;23.55;12.55;;;8.30;99.90;;;;;;5066925;28;20052;-63
2022/11/23 04:19:19;;;;;;;26.60;13.13;;;8.20;99.90;;;;;;5068493;28;20036;-63
2022/11/23 04:21:45;;;;;;;23.88;13.68;;;8.20;99.90;;;;;;5068191;28;20037;-64
2022/11/23 04:24:10;;;;;;;24.25;12.75;;;8.30;99.90;;;;;;5067730;28;20090;-63
2022/11/23 04:26:36;;;;;;;28.40;13.00;;;8.30;99.90;;;;;;5066681;28;20790;-64
2022/11/23 04:29:01;;;;;;;26.30;12.32;;;8.20;99.90;;;;;;5065237;28;20067;-64
2022/11/23 04:31:27;;;;;;;23.80;12.15;;;8.30;99.90;;;;;;5070144;28;20029;-64
2022/11/23 04:33:55;;;;;;;26.80;12.73;;;8.30;99.90;;;;;;5067328;28;20033;-63
2022/11/23 04:36:20;;;;;;;24.98;12.57;;;8.30;99.90;;;;;;5064221;28;20047;-63
2022/11/23 04:38:46;;;;;;;25.50;12.77;;;8.20;99.90;;;;;;5066398;28;20052;-64
2022/11/23 04:41:11;;;;;;;22.05;12.82;;;8.30;99.90;;;;;;5067526;28;20045;-63
2022/11/23 04:43:37;;;;;;;26.00;12.20;;;8.30;99.90;;;;;;5070420;28;20076;-64
2022/11/23 04:46:02;;;;;;;24.85;13.18;;;8.30;99.90;;;;;;5068156;28;20036;-64
2022/11/23 04:48:28;;;;;;;29.52;13.32;;;8.30;99.90;;;;;;5067361;28;20573;-63
2022/11/23 04:50:54;;;;;;;25.02;13.32;;;8.30;99.90;;;;;;5068471;28;20086;-63
2022/11/23 04:53:19;;;;;;;28.90;12.45;;;8.30;99.90;;;;;;5069102;28;20063;-64
2022/11/23 04:55:46;;;;;;;30.98;13.27;;;8.30;99.90;;;;;;5069127;28;20109;-64
2022/11/23 04:58:11;;;;;;;24.00;13.00;;;8.30;99.90;;;;;;5066146;28;20041;-64
2022/11/23 05:00:37;;;;;;;27.20;13.32;;;8.30;99.90;;;;;;5066624;28;20048;-63
2022/11/23 05:03:03;;;;;;;22.63;11.60;;;8.30;99.90;;;;;;5059693;28;20052;-63
2022/11/23 05:05:29;;;;;;;26.95;12.88;;;8.30;99.90;;;;;;5066012;28;20028;-64
2022/11/23 05:07:55;;;;;;;28.20;12.70;;;8.30;99.90;;;;;;5068943;28;20048;-63
2022/11/23 05:10:21;;;;;;;22.33;11.70;;;8.30;99.90;;;;;;5068291;28;21064;-63
2022/11/23 05:12:46;;;;;;;24.95;12.00;;;8.30;99.90;;;;;;5062562;28;20040;-63
2022/11/23 05:15:13;;;;;;;21.95;11.20;;;8.30;99.90;;;;;;5065552;28;20059;-63
2022/11/23 05:17:39;;;;;;;22.98;10.93;;;8.30;99.90;;;;;;5061516;28;20132;-63
2022/11/23 05:20:05;;;;;;;24.67;11.40;;;8.30;99.90;;;;;;5064334;28;20534;-63
2022/11/23 05:22:30;;;;;;;23.48;11.23;;;8.30;99.90;;;;;;5069827;28;20041;-63
2022/11/23 05:24:56;;;;;;;28.33;11.20;;;8.30;99.90;;;;;;5070844;28;20047;-63
2022/11/23 05:27:21;;;;;;;16.23;9.60;;;8.30;99.90;;;;;;5069859;28;20039;-63
2022/11/23 05:29:47;;;;;;;22.85;10.13;;;8.30;99.90;;;;;;5069920;28;20119;-63
2022/11/23 05:32:12;;;;;;;18.55;9.60;;;8.30;99.90;;;;;;5066933;28;20102;-63
2022/11/23 05:34:38;;;;;;;21.27;10.55;;;8.30;99.90;;;;;;5068292;28;20028;-64
2022/11/23 05:37:04;;;;;;;19.55;9.10;;;8.20;99.90;;;;;;5064412;28;20114;-64
2022/11/23 05:39:29;;;;;;;15.55;8.48;;;8.20;99.90;;;;;;5055210;28;20468;-64
2022/11/23 05:41:55;;;;;;;21.45;9.40;;;8.30;99.90;;;;;;5069837;28;20074;-63
2022/11/23 05:44:20;;;;;;;22.80;8.25;;;8.20;99.90;;;;;;5070124;28;20064;-64
2022/11/23 05:46:46;;;;;;;15.60;8.60;;;8.20;99.90;;;;;;5060385;28;20048;-64
2022/11/23 05:49:11;;;;;;;20.33;8.15;;;8.20;99.90;;;;;;5066782;28;20441;-64
2022/11/23 05:51:37;;;;;;;14.60;7.38;;;8.20;99.90;;;;;;5071415;28;20401;-63
2022/11/23 05:54:03;;;;;;;18.92;8.10;;;8.20;99.90;;;;;;5067148;28;20037;-64
2022/11/23 05:56:28;;;;;;;17.65;6.88;;;8.20;99.90;;;;;;5072013;28;20489;-63
2022/11/23 05:58:55;;;;;;;16.27;7.05;;;8.10;99.90;;;;;;5070320;28;20068;-64
2022/11/23 06:01:21;;;;;;;14.80;6.35;;;8.10;99.90;;;;;;5073600;28;20520;-63
2022/11/23 06:03:48;;;;;;;14.98;6.57;;;8.10;99.90;;;;;;5069429;28;20080;-63
2022/11/23 06:06:14;;;;;;;14.98;6.82;;;8.10;99.90;;;;;;5069452;28;20040;-64
2022/11/23 06:08:39;;;;;;;15.93;6.43;;;8.00;99.90;;;;;;5070216;28;20074;-63
2022/11/23 06:11:05;;;;;;;15.15;6.68;;;8.00;99.90;;;;;;5068859;28;20123;-64
2022/11/23 06:13:31;;;;;;;13.63;6.30;;;8.00;99.90;;;;;;5071525;28;20040;-63
2022/11/23 06:15:56;;;;;;;14.48;6.00;;;7.90;99.90;;;;;;5071009;28;20052;-63
2022/11/23 06:18:22;;;;;;;15.40;6.05;;;7.90;99.90;;;;;;5069953;28;20040;-64
2022/11/23 06:20:47;;;;;;;15.27;6.07;;;7.90;99.90;;;;;;5072959;28;20127;-64
2022/11/23 06:23:13;;;;;;;13.55;5.80;;;7.80;99.90;;;;;;5071345;28;20401;-64
2022/11/23 06:25:39;;;;;;;18.20;5.80;;;7.80;99.90;;;;;;5071687;28;20083;-64
2022/11/23 06:28:05;;;;;;;15.25;5.75;;;7.70;99.90;;;;;;5068668;28;20106;-64
2022/11/23 06:30:30;;;;;;;13.45;5.50;;;7.70;99.90;;;;;;5071176;28;20036;-64
2022/11/23 06:32:56;;;;;;;14.75;6.00;;;7.70;99.90;;;;;;5073400;28;20079;-64
2022/11/23 06:35:22;;;;;;;17.90;6.03;;;7.60;99.90;;;;;;5073976;28;20036;-64
2022/11/23 06:37:49;;;;;;;14.02;5.22;;;7.60;99.90;;;;;;5065587;28;20070;-64
2022/11/23 06:40:15;;;;;;;17.85;5.45;;;7.50;99.90;;;;;;5070348;28;20101;-64
2022/11/23 06:42:41;;;;;;;14.32;5.47;;;7.50;99.90;;;;;;5071159;28;20036;-64
2022/11/23 06:45:08;;;;;;;15.32;5.55;;;7.50;99.90;;;;;;5062476;28;20047;-64
2022/11/23 06:47:33;;;;;;;15.23;5.45;;;7.40;99.90;;;;;;5069546;28;20494;-64
2022/11/23 06:49:59;;;;;;;12.70;5.25;;;7.40;99.90;;;;;;5077910;28;20032;-64
2022/11/23 06:52:25;;;;;;;12.82;5.05;;;7.30;99.90;;;;;;5070586;28;20036;-64
2022/11/23 06:54:50;;;;;;;14.40;4.85;;;7.30;99.90;;;;;;5071354;28;20041;-64
2022/11/23 06:57:16;;;;;;;13.20;5.57;;;7.30;99.90;;;;;;5069930;28;20036;-64
2022/11/23 06:59:43;;;;;;;12.60;5.20;;;7.30;99.90;;;;;;5071490;28;21110;-64
2022/11/23 07:02:08;;;;;;;10.02;5.30;;;7.30;99.90;;;;;;5070800;28;20115;-64
2022/11/23 07:04:34;;;;;;;13.20;5.22;;;7.30;99.90;;;;;;5065045;28;20116;-64
2022/11/23 07:06:59;;;;;;;15.43;5.20;;;7.20;99.90;;;;;;5066234;28;20032;-64
2022/11/23 07:09:25;;;;;;;16.33;5.47;;;7.20;99.90;;;;;;5065430;28;20044;-64
2022/11/23 07:11:50;;;;;;;13.50;5.13;;;7.20;99.90;;;;;;5061781;28;20036;-64
2022/11/23 07:14:16;;;;;;;11.15;5.25;;;7.20;99.90;;;;;;5068247;28;20048;-64
2022/11/23 07:16:42;;;;;;;11.68;4.93;;;7.20;99.90;;;;;;5066878;28;20506;-64
2022/11/23 07:19:07;;;;;;;17.00;5.30;;;7.20;99.90;;;;;;5067545;28;20102;-64
2022/11/23 07:21:33;;;;;;;15.85;5.47;;;7.20;99.90;;;;;;5059749;28;20069;-64
2022/11/23 07:23:58;;;;;;;12.73;4.88;;;7.20;99.90;;;;;;5057510;28;20033;-64
2022/11/23 07:26:24;;;;;;;13.00;5.25;;;7.30;99.90;;;;;;5065886;28;20125;-62
2022/11/23 07:28:50;;;;;;;17.70;5.45;;;7.30;99.90;;;;;;5063427;28;20043;-64
2022/11/23 07:31:15;;;;;;;17.58;6.53;;;7.40;99.90;;;;;;5068039;28;20039;-63
2022/11/23 07:33:47;;;;;;;15.57;5.70;;;7.40;99.90;;;;;;5069867;28;20113;-63
2022/11/23 07:36:13;;;;;;;18.00;6.63;;;7.40;99.90;;;;;;5072478;28;20059;-63
2022/11/23 07:38:39;;;;;;;14.68;5.03;;;7.50;99.90;;;;;;5072742;28;20048;-64
2022/11/23 07:41:04;;;;;;;15.02;5.20;;;7.50;99.90;;;;;;5068305;28;20174;-64
2022/11/23 07:43:30;;;;;;;15.45;5.60;;;7.60;99.90;;;;;;5070364;28;20089;-64
2022/11/23 07:45:56;;;;;;;17.30;6.13;;;7.60;99.90;;;;;;5071056;28;20033;-64
2022/11/23 07:48:23;;;;;;;15.90;5.43;;;7.60;99.90;;;;;;5071819;28;20043;-64
2022/11/23 07:50:52;;;;;;;11.95;5.78;;;7.70;99.90;;;;;;5067142;28;20514;-64
2022/11/23 07:53:18;;;;;;;16.50;5.03;;;7.70;99.90;;;;;;5069598;28;20525;-64
2022/11/23 07:55:43;;;;;;;15.52;5.45;;;7.70;99.90;;;;;;5063508;28;20045;-64
2022/11/23 07:58:10;;;;;;;11.60;5.47;;;7.80;99.90;;;;;;5066773;28;20508;-64
2022/11/23 08:00:36;;;;;;;13.55;5.28;;;7.80;99.90;;;;;;5068761;28;20456;-64
2022/11/23 08:03:02;;;;;;;15.35;5.43;;;7.80;99.90;;;;;;5069648;28;20032;-64
2022/11/23 08:05:30;;;;;;;16.27;5.47;;;7.90;99.90;;;;;;5071084;28;20043;-63
2022/11/23 08:08:00;;;;;;;17.63;5.88;;;7.90;99.90;;;;;;5079483;28;20024;-64
2022/11/23 08:10:30;;;;;;;14.25;5.28;;;7.90;99.90;;;;;;5066159;28;20375;-64
2022/11/23 08:13:00;;;;;;;16.67;5.60;;;8.00;99.90;;;;;;5071883;28;20028;-64
2022/11/23 08:15:29;;;;;;;13.23;5.67;;;8.00;99.90;;;;;;5067376;28;20086;-64
2022/11/23 08:17:59;;;;;;;17.77;5.22;;;8.00;99.90;;;;;;5072407;28;20082;-64
2022/11/23 08:20:26;;;;;;;12.97;5.67;;;8.00;99.90;;;;;;5070619;28;20037;-64
2022/11/23 08:22:54;;;;;;;15.98;5.60;;;8.10;99.90;;;;;;5062654;28;20332;-64
2022/11/23 08:25:21;;;;;;;13.85;5.05;;;8.10;99.90;;;;;;5070037;28;20059;-63
2022/11/23 08:27:47;;;;;;;15.93;5.30;;;8.10;99.90;;;;;;5068440;28;20106;-64
2022/11/23 08:30:13;;;;;;;11.65;5.07;;;8.20;99.90;;;;;;5069728;28;20044;-64
2022/11/23 08:32:39;;;;;;;13.25;5.00;;;8.20;99.90;;;;;;5070199;28;20076;-64
2022/11/23 08:35:05;;;;;;;18.48;4.82;;;8.20;99.90;;;;;;5069695;28;20079;-64
2022/11/23 08:37:31;;;;;;;11.90;4.88;;;8.20;99.90;;;;;;5071165;28;20067;-64
2022/11/23 08:39:56;;;;;;;15.38;5.10;;;8.30;99.90;;;;;;5068934;28;20528;-64
2022/11/23 08:42:22;;;;;;;14.15;4.47;;;8.30;99.90;;;;;;5066001;28;20041;-64
2022/11/23 08:44:47;;;;;;;20.98;5.07;;;8.30;99.90;;;;;;5069062;28;20072;-64
2022/11/23 08:47:13;;;;;;;17.52;5.13;;;8.40;99.90;;;;;;5079875;28;20111;-64
2022/11/23 08:49:38;;;;;;;15.05;5.03;;;8.50;99.90;;;;;;5068081;28;20487;-64
2022/11/23 08:52:04;;;;;;;12.65;4.72;;;8.50;99.90;;;;;;5071034;28;20036;-64
2022/11/23 08:54:30;;;;;;;14.10;5.03;;;8.60;99.90;;;;;;5068592;28;20033;-64
2022/11/23 08:56:56;;;;;;;14.43;5.35;;;8.70;99.90;;;;;;5067982;28;20119;-64
2022/11/23 08:59:22;;;;;;;13.55;4.53;;;8.80;99.90;;;;;;5069931;28;20119;-64
2022/11/23 09:01:47;;;;;;;15.63;4.97;;;8.70;99.90;;;;;;5067822;28;20067;-64
2022/11/23 09:04:13;;;;;;;15.90;4.45;;;8.80;99.90;;;;;;5070143;28;20044;-63
2022/11/23 09:06:39;;;;;;;18.80;4.78;;;8.80;99.90;;;;;;5067616;28;20032;-64
2022/11/23 09:09:05;;;;;;;14.68;4.53;;;8.90;99.90;;;;;;5065294;28;20024;-64
2022/11/23 09:11:31;;;;;;;14.65;4.10;;;8.90;99.90;;;;;;5069598;28;20120;-64
2022/11/23 09:13:57;;;;;;;13.07;4.35;;;8.90;99.90;;;;;;5066090;28;20037;-64
2022/11/23 09:16:22;;;;;;;13.93;4.40;;;8.90;99.90;;;;;;5061535;28;20048;-64
2022/11/23 09:18:48;;;;;;;12.02;4.03;;;8.90;99.90;;;;;;5059751;28;20402;-64
2022/11/23 09:21:14;;;;;;;12.70;3.75;;;9.00;99.90;;;;;;5068858;28;20047;-64
2022/11/23 09:23:40;;;;;;;16.60;3.63;;;8.90;99.90;;;;;;5068966;28;20037;-64
2022/11/23 09:26:06;;;;;;;11.13;3.95;;;8.90;99.90;;;;;;5066748;28;20045;-64
2022/11/23 09:28:32;;;;;;;12.20;3.70;;;8.90;99.90;;;;;;5071268;28;20036;-64
2022/11/23 09:31:02;;;;;;;16.13;3.53;;;8.90;99.90;;;;;;5077578;28;20427;-64
2022/11/23 09:33:27;;;;;;;13.75;3.50;;;8.90;99.90;;;;;;5070023;28;20071;-64
2022/11/23 09:35:57;;;;;;;16.58;4.13;;;8.90;99.90;;;;;;5073615;28;20056;-65
2022/11/23 09:38:23;;;;;;;15.00;3.53;;;8.90;99.90;;;;;;5072881;28;20043;-64
2022/11/23 09:41:15;;;;;;;12.93;3.65;;;8.90;99.90;;;;;;5062648;28;20025;-64
2022/11/23 09:43:49;;;;;;;13.70;4.03;;;8.90;99.90;;;;;;5051965;28;20048;-64
2022/11/23 09:46:33;;;;;;;14.75;3.97;;;8.90;99.90;;;;;;5073298;28;20127;-65
2022/11/23 09:49:40;;;;;;;14.80;3.25;;;8.90;99.90;;;;;;5061121;28;20040;-65
2022/11/23 09:52:16;;;;;;;13.93;3.33;;;8.90;99.90;;;;;;5048230;28;20048;-64
2022/11/23 09:54:44;;;;;;;17.85;3.47;;;8.90;99.90;;;;;;5072939;28;20048;-64
2022/11/23 09:57:15;;;;;;;14.05;3.30;;;8.90;99.90;;;;;;5066879;28;20121;-65
2022/11/23 09:59:46;;;;;;;14.27;3.22;;;8.90;99.90;;;;;;5068433;28;20075;-65
2022/11/23 10:02:21;;;;;;;13.90;3.00;;;8.90;99.90;;;;;;5073224;28;20051;-65
2022/11/23 10:04:48;;;;;;;15.75;3.33;;;8.90;99.90;;;;;;5070405;28;20044;-65
2022/11/23 10:07:16;;;;;;;14.50;3.25;;;8.90;99.90;;;;;;5104348;23;20024;-68
2022/11/23 10:10:29;;;;;;;14.25;3.45;;;8.90;99.90;;;;;;5060254;28;20562;-68
2022/11/23 10:13:20;;;;;;;14.20;3.22;;;9.00;99.90;;;;;;4995125;28;20042;-68
2022/11/23 10:16:03;;;;;;;12.07;3.20;;;8.90;99.90;;;;;;5051188;28;20103;-68
2022/11/23 10:18:51;;;;;;;15.63;3.40;;;8.90;99.90;;;;;;5038608;28;20738;-68
2022/11/23 10:21:29;;;;;;;15.25;3.10;;;8.90;99.90;;;;;;5026009;28;20431;-68
2022/11/23 10:24:18;;;;;;;18.13;2.72;;;8.90;99.90;;;;;;5023357;28;20025;-67
2022/11/23 10:26:49;;;;;;;17.60;3.22;;;8.90;99.90;;;;;;5032169;28;20056;-68
2022/11/23 10:29:26;;;;;;;12.83;2.80;;;8.80;99.90;;;;;;5026298;28;20041;-68
2022/11/23 10:31:53;;;;;;;14.73;3.42;;;8.90;99.90;;;;;;5021093;28;20307;-68
2022/11/23 10:34:41;;;;;;;11.65;2.95;;;8.80;99.90;;;;;;5031543;28;20079;-68
2022/11/23 10:37:11;;;;;;;20.35;3.63;;;8.80;99.90;;;;;;5028887;28;20107;-68
2022/11/23 10:39:37;;;;;;;16.75;3.17;;;8.80;99.90;;;;;;5033412;28;20069;-67
2022/11/23 10:42:27;;;;;;;14.07;2.92;;;8.80;99.90;;;;;;5012847;28;20083;-68
2022/11/23 10:44:55;;;;;;;21.13;3.80;;;8.90;99.90;;;;;;5027043;28;20033;-68
2022/11/23 10:47:34;;;;;;;18.52;3.63;;;8.90;99.90;;;;;;5028516;28;20495;-67
2022/11/23 10:50:00;;;;;;;11.15;2.90;;;8.90;99.90;;;;;;5038266;28;20033;-68
2022/11/23 10:52:32;;;;;;;14.63;2.75;;;9.00;99.90;;;;;;5025940;28;20074;-68
2022/11/23 10:55:01;;;;;;;14.63;3.03;;;9.10;99.90;;;;;;5005892;28;20041;-68
2022/11/23 10:57:26;;;;;;;12.55;3.10;;;9.20;99.90;;;;;;5032920;28;20125;-67
2022/11/23 11:00:17;;;;;;;12.13;3.05;;;9.30;99.90;;;;;;5024823;28;20132;-67
2022/11/23 11:02:45;;;;;;;12.88;2.72;;;9.40;99.90;;;;;;5030908;28;20112;-68
2022/11/23 11:05:23;;;;;;;16.40;3.03;;;9.60;99.90;;;;;;5029872;28;20038;-68
2022/11/23 11:07:49;;;;;;;11.95;2.80;;;9.70;99.90;;;;;;5032872;28;20041;-67
2022/11/23 11:10:48;;;;;;;14.02;2.92;;;9.80;99.90;;;;;;5031618;28;20041;-67
2022/11/23 11:13:30;;;;;;;9.40;2.50;;;9.90;99.90;;;;;;5032913;28;20079;-68
2022/11/23 11:16:01;;;;;;;15.85;2.75;;;9.90;99.90;;;;;;5038771;28;20064;-68
2022/11/23 11:18:33;;;;;;;11.07;2.60;;;9.90;99.90;;;;;;5029243;28;20079;-68
2022/11/23 11:21:20;;;;;;;15.00;2.75;;;9.90;99.90;;;;;;5023525;28;20033;-67
2022/11/23 11:24:02;;;;;;;10.23;2.60;;;9.90;99.90;;;;;;5029335;28;20050;-68
2022/11/23 11:26:30;;;;;;;14.48;2.80;;;10.00;99.90;;;;;;5028125;28;20105;-68
2022/11/23 11:28:59;;;;;;;9.65;2.40;;;10.10;99.90;;;;;;5040687;28;20094;-68
2022/11/23 11:31:56;;;;;;;13.55;2.53;;;10.10;99.90;;;;;;5013106;28;20037;-68
2022/11/23 11:34:37;;;;;;;12.68;1.95;;;10.20;99.90;;;;;;5030694;28;20632;-68
2022/11/23 11:37:30;;;;;;;11.52;1.92;;;10.20;99.90;;;;;;5029619;28;20573;-68
2022/11/23 11:40:21;;;;;;;10.18;2.42;;;10.30;99.90;;;;;;5030898;28;20493;-68
2022/11/23 11:43:11;;;;;;;11.93;2.65;;;10.30;99.90;;;;;;5027762;28;20042;-68
2022/11/23 11:45:42;;;;;;;9.83;2.07;;;10.40;99.90;;;;;;5029105;28;20033;-68
2022/11/23 11:48:41;;;;;;;11.98;2.40;;;10.40;99.90;;;;;;5028434;28;20288;-67
2022/11/23 11:51:11;;;;;;;10.88;2.22;;;10.50;99.90;;;;;;5038872;28;20084;-68
2022/11/23 11:53:47;;;;;;;13.43;2.42;;;10.50;99.90;;;;;;5013926;28;20129;-67
2022/11/23 11:56:35;;;;;;;11.85;2.35;;;10.50;99.90;;;;;;5026766;28;20051;-68
2022/11/23 11:59:12;;;;;;;7.30;1.92;;;10.60;99.90;;;;;;5022695;28;20124;-69
2022/11/23 12:01:54;;;;;;;10.35;2.70;;;10.60;99.90;;;;;;5028541;28;20095;-68
2022/11/23 12:04:35;;;;;;;6.45;1.95;;;10.50;99.90;;;;;;5030419;28;20033;-69
2022/11/23 12:07:09;;;;;;;7.55;1.90;;;10.60;99.90;;;;;;5029598;28;20506;-68
2022/11/23 12:09:39;;;;;;;15.00;2.45;;;10.60;99.90;;;;;;5027444;28;20033;-68
2022/11/23 12:12:13;;;;;;;10.60;2.10;;;10.60;99.90;;;;;;5032609;28;20033;-69
2022/11/23 12:14:39;;;;;;;9.10;1.92;;;10.60;99.90;;;;;;5039710;28;20037;-69
2022/11/23 12:17:28;;;;;;;12.35;2.75;;;10.70;99.90;;;;;;5030539;28;20117;-69
2022/11/23 12:20:02;;;;;;;11.27;2.38;;;10.70;99.90;;;;;;5025894;28;20469;-69
2022/11/23 12:22:31;;;;;;;9.55;1.67;;;10.60;99.90;;;;;;5047896;28;20048;-69
2022/11/23 12:25:19;;;;;;;7.22;2.38;;;10.70;99.90;;;;;;5040265;28;20044;-69
2022/11/23 12:27:58;;;;;;;15.68;2.20;;;10.70;99.90;;;;;;5034451;28;20046;-69
2022/11/23 12:30:32;;;;;;;11.13;2.10;;;10.80;99.90;;;;;;5029338;28;20037;-69
2022/11/23 12:33:00;;;;;;;11.13;2.10;;;10.80;99.90;;;;;;5022899;28;20069;-67
2022/11/23 12:35:51;;;;;;;10.80;2.10;;;10.90;99.90;;;;;;5031152;28;20122;-69
2022/11/23 12:38:34;;;;;;;9.18;1.88;;;10.90;99.90;;;;;;5029135;28;20041;-69
2022/11/23 12:41:11;;;;;;;10.25;1.77;;;10.90;99.90;;;;;;5034425;28;20477;-69
2022/11/23 12:43:49;;;;;;;10.27;1.70;;;11.00;99.90;;;;;;5030912;28;20049;-69
2022/11/23 12:46:40;;;;;;;7.97;1.83;;;11.00;99.90;;;;;;5027558;28;20042;-68
2022/11/23 12:49:24;;;;;;;;;;;11.20;99.90;;;;;;5030484;28;20041;-68
2022/11/23 12:52:05;;;;;;;9.23;2.30;;;11.10;99.90;;;;;;5029341;28;19944;-68
2022/11/23 12:54:57;;;;;;;11.15;2.00;;;11.20;99.90;;;;;;5030765;28;20111;-68